Time;durP1;ratioP1;P1;durP2;ratioP2;P2;SDS_P1;SDS_P2;PMS_P1;PMS_P2;Temp;Humidity;BMP_temperature;BMP_pressure;BME280_temperature;BME280_humidity;BME280_pressure;Samples;Min_cycle;Max_cycle;Signal;HPM_P1;HPM_P2
2022/05/28 00:03:45;;;;;;;8.38;1.73;;;;;;;9.82;71.57;99013.75;8202670;28;20051;-73
2022/05/28 00:07:47;;;;;;;9.13;2.00;;;;;;;9.80;71.83;99005.97;8214207;28;20087;-72
2022/05/28 00:11:48;;;;;;;14.57;2.28;;;;;;;9.80;71.78;99015.94;8200828;28;20055;-71
2022/05/28 00:15:50;;;;;;;9.35;1.70;;;;;;;9.75;71.48;99012.28;8204283;28;20329;-71
2022/05/28 00:19:51;;;;;;;10.25;2.05;;;;;;;9.75;71.63;99001.50;8206431;28;20047;-71
2022/05/28 00:23:52;;;;;;;9.05;2.00;;;;;;;9.70;71.65;99007.00;8204187;28;20047;-73
2022/05/28 00:27:54;;;;;;;10.50;2.03;;;;;;;9.66;72.14;99006.03;8217355;28;20475;-72
2022/05/28 00:31:55;;;;;;;8.48;1.65;;;;;;;9.63;72.63;99003.13;8225515;28;20418;-71
2022/05/28 00:35:57;;;;;;;15.25;2.08;;;;;;;9.63;72.55;99001.22;8198974;28;20055;-72
2022/05/28 00:40:01;;;;;;;9.35;1.77;;;;;;;9.45;73.21;98994.09;8222109;28;20114;-72
2022/05/28 00:44:04;;;;;;;11.27;2.25;;;;;;;9.35;73.63;99005.09;8220121;28;20180;-71
2022/05/28 00:48:06;;;;;;;8.80;1.88;;;;;;;9.29;74.33;98995.53;8197978;28;20048;-72
2022/05/28 00:52:10;;;;;;;9.45;2.10;;;;;;;9.37;74.06;98992.09;8197962;28;20050;-72
2022/05/28 00:56:11;;;;;;;8.15;2.30;;;;;;;9.41;74.45;98993.09;8199224;28;20047;-72
2022/05/28 01:00:17;;;;;;;8.23;2.33;;;;;;;9.43;74.27;98988.22;8197810;28;20431;-71
2022/05/28 01:04:39;;;;;;;7.93;2.30;;;;;;;9.43;74.12;98980.13;8208148;28;20043;-71
2022/05/28 01:08:50;;;;;;;11.48;2.08;;;;;;;9.45;74.28;98983.31;8199830;28;20075;-72
2022/05/28 01:13:03;;;;;;;5.90;1.77;;;;;;;9.50;74.08;98972.41;8204150;28;20055;-72
2022/05/28 01:17:26;;;;;;;10.85;2.67;;;;;;;9.57;73.65;98975.47;8189760;29;20043;-72
2022/05/28 01:21:44;;;;;;;8.15;1.92;;;;;;;9.44;73.90;98976.34;8194368;28;20059;-72
2022/05/28 01:26:00;;;;;;;11.23;2.28;;;;;;;9.40;73.76;98975.34;8220709;28;20054;-72
2022/05/28 01:30:06;;;;;;;11.20;2.33;;;;;;;9.29;73.92;98973.97;8203346;28;20400;-72
2022/05/28 01:34:08;;;;;;;13.63;2.03;;;;;;;9.30;73.54;98965.59;8169130;29;20175;-73
2022/05/28 01:38:11;;;;;;;10.55;2.05;;;;;;;9.29;73.65;98973.97;8199617;28;20053;-72
2022/05/28 01:42:13;;;;;;;12.38;1.98;;;;;;;9.30;73.22;98970.19;8221962;28;20129;-72
2022/05/28 01:46:17;;;;;;;11.75;2.10;;;;;;;9.44;72.45;98970.94;8206777;28;20051;-72
2022/05/28 01:50:19;;;;;;;15.90;2.40;;;;;;;9.34;73.10;98960.38;8221412;28;20078;-72
2022/05/28 01:54:25;;;;;;;11.98;2.05;;;;;;;9.30;73.15;98959.41;8204361;28;20048;-72
2022/05/28 01:58:26;;;;;;;14.27;2.15;;;;;;;9.21;73.53;98961.22;8202526;28;20048;-71
2022/05/28 02:02:27;;;;;;;10.52;1.77;;;;;;;9.08;74.09;98962.03;8214456;28;20057;-72
2022/05/28 02:06:28;;;;;;;6.53;1.98;;;;;;;9.02;74.10;98947.09;8222703;28;20138;-72
2022/05/28 02:10:29;;;;;;;13.32;2.00;;;;;;;9.01;73.78;98945.47;8214457;28;20050;-73
2022/05/28 02:14:42;;;;;;;14.27;2.60;;;;;;;9.04;73.64;98950.28;8216947;28;20140;-73
2022/05/28 02:18:53;;;;;;;12.50;2.00;;;;;;;9.06;73.61;98942.69;8202773;28;20055;-73
2022/05/28 02:23:16;;;;;;;9.55;2.10;;;;;;;9.12;73.56;98952.25;8169383;28;20052;-73
2022/05/28 02:27:18;;;;;;;14.10;2.38;;;;;;;9.10;73.65;98935.59;8223130;28;20043;-73
2022/05/28 02:31:31;;;;;;;11.10;1.60;;;;;;;9.21;73.28;98939.66;8202955;28;20130;-72
2022/05/28 02:35:33;;;;;;;11.43;1.92;;;;;;;9.04;73.83;98940.28;8204778;28;20055;-72
2022/05/28 02:39:34;;;;;;;10.30;1.75;;;;;;;8.90;74.60;98934.94;8203666;28;20055;-72
2022/05/28 02:43:36;;;;;;;11.68;2.38;;;;;;;8.83;75.48;98939.13;8203271;28;20415;-72
2022/05/28 02:47:37;;;;;;;7.97;1.70;;;;;;;8.73;76.35;98934.75;8200893;28;20074;-71
2022/05/28 02:51:38;;;;;;;9.20;2.58;;;;;;;8.68;76.95;98932.16;8202176;28;20499;-72
2022/05/28 02:55:39;;;;;;;5.35;1.77;;;;;;;8.76;76.90;98918.00;8215948;28;20043;-72
2022/05/28 02:59:41;;;;;;;10.80;1.98;;;;;;;8.80;77.06;98932.44;8199240;28;20051;-72
2022/05/28 03:03:42;;;;;;;11.88;2.28;;;;;;;8.84;77.06;98929.94;8212752;28;20086;-72
2022/05/28 03:07:43;;;;;;;12.50;2.47;;;;;;;8.78;77.28;98936.53;8204810;28;20567;-72
2022/05/28 03:11:44;;;;;;;11.43;2.30;;;;;;;8.70;77.93;98929.97;8203543;28;20078;-72
2022/05/28 03:15:45;;;;;;;15.38;2.40;;;;;;;8.65;78.24;98927.38;8200543;28;20063;-72
2022/05/28 03:19:46;;;;;;;8.25;2.08;;;;;;;8.61;77.89;98930.97;8229454;28;20463;-72
2022/05/28 03:23:47;;;;;;;5.45;1.70;;;;;;;8.58;77.67;98932.34;8203392;28;20090;-71
2022/05/28 03:27:48;;;;;;;12.55;2.13;;;;;;;8.51;77.96;98941.94;8199800;28;20078;-72
2022/05/28 03:31:50;;;;;;;13.75;2.55;;;;;;;8.48;78.12;98932.56;8200436;28;20043;-73
2022/05/28 03:35:53;;;;;;;12.77;2.50;;;;;;;8.41;78.69;98932.16;8199016;28;20051;-72
2022/05/28 03:39:54;;;;;;;6.35;1.98;;;;;;;8.39;78.96;98942.44;8181044;29;20053;-73
2022/05/28 03:43:55;;;;;;;8.55;2.05;;;;;;;8.30;79.50;98941.53;8199518;28;20083;-72
2022/05/28 03:47:56;;;;;;;15.57;2.50;;;;;;;8.41;79.22;98942.91;8199403;28;20047;-72
2022/05/28 03:51:58;;;;;;;9.18;1.90;;;;;;;8.53;78.90;98935.16;8199270;28;20071;-72
2022/05/28 03:55:59;;;;;;;11.23;2.00;;;;;;;8.59;78.83;98933.97;8204144;28;20074;-72
2022/05/28 04:00:01;;;;;;;10.93;2.20;;;;;;;8.61;78.27;98937.16;8212936;28;20055;-72
2022/05/28 04:04:03;;;;;;;11.98;2.20;;;;;;;8.69;77.97;98949.91;8211515;28;20512;-73
2022/05/28 04:08:05;;;;;;;7.55;1.70;;;;;;;8.78;77.79;98953.47;8221799;28;20198;-72
2022/05/28 04:12:06;;;;;;;9.43;1.58;;;;;;;8.83;76.92;98956.06;8220904;28;20043;-72
2022/05/28 04:16:07;;;;;;;5.55;1.60;;;;;;;8.74;77.48;98944.41;8198706;28;20043;-72
2022/05/28 04:20:10;;;;;;;11.57;1.90;;;;;;;8.77;77.65;98951.91;8198723;28;20477;-71
2022/05/28 04:24:13;;;;;;;10.18;2.03;;;;;;;8.82;77.19;98943.72;8212342;28;20117;-71
2022/05/28 04:28:14;;;;;;;6.78;1.50;;;;;;;8.95;76.23;98952.06;8204115;28;20049;-72
2022/05/28 04:32:16;;;;;;;9.80;1.42;;;;;;;8.98;76.50;98946.91;8215557;28;20043;-72
2022/05/28 04:36:17;;;;;;;13.15;2.05;;;;;;;9.04;75.75;98939.50;8212082;28;20047;-72
2022/05/28 04:40:18;;;;;;;8.20;1.48;;;;;;;9.12;75.63;98930.69;8204672;28;20131;-72
2022/05/28 04:44:19;;;;;;;9.40;1.50;;;;;;;9.12;75.41;98946.88;8228045;28;20051;-72
2022/05/28 04:48:20;;;;;;;13.32;1.45;;;;;;;9.31;74.71;98936.72;8212765;28;20039;-73
2022/05/28 04:52:21;;;;;;;7.85;1.33;;;;;;;9.45;73.79;98934.81;8234639;28;20517;-71
2022/05/28 04:56:22;;;;;;;5.60;0.88;;;;;;;9.55;73.27;98939.94;8233400;28;20495;-73
2022/05/28 05:00:27;;;;;;;7.40;1.48;;;;;;;9.63;73.43;98933.00;8247037;28;20139;-72
2022/05/28 05:04:27;;;;;;;7.32;1.20;;;;;;;9.74;72.89;98927.06;8241841;28;20086;-71
2022/05/28 05:08:31;;;;;;;10.18;1.88;;;;;;;9.78;72.76;98929.19;8248265;28;20074;-71
2022/05/28 05:12:32;;;;;;;10.32;1.52;;;;;;;9.80;72.92;98913.47;8231174;28;20070;-71
2022/05/28 05:16:33;;;;;;;5.47;1.30;;;;;;;9.85;71.83;98921.44;8231391;28;20141;-72
2022/05/28 05:20:34;;;;;;;10.52;1.52;;;;;;;9.93;71.64;98923.41;8232491;28;20054;-71
2022/05/28 05:24:35;;;;;;;9.88;1.50;;;;;;;9.96;71.79;98925.47;8215651;28;20089;-72
2022/05/28 05:28:37;;;;;;;15.63;1.77;;;;;;;10.03;70.09;98923.13;8241032;28;20061;-72
2022/05/28 05:32:38;;;;;;;5.43;1.10;;;;;;;10.11;70.11;98925.06;8208171;28;20047;-71
2022/05/28 05:36:39;;;;;;;8.65;1.58;;;;;;;10.05;70.52;98926.31;8223251;28;20066;-72
2022/05/28 05:40:40;;;;;;;7.68;1.67;;;;;;;9.97;70.63;98930.56;8202592;28;20303;-72
2022/05/28 05:44:41;;;;;;;8.48;1.52;;;;;;;10.08;69.08;98925.69;8219012;28;20340;-71
2022/05/28 05:48:43;;;;;;;18.23;2.03;;;;;;;10.15;68.48;98926.06;8218771;28;20055;-71
2022/05/28 05:52:43;;;;;;;6.38;1.35;;;;;;;10.33;68.44;98916.94;8209139;28;20054;-72
2022/05/28 05:56:45;;;;;;;6.13;1.17;;;;;;;10.37;68.39;98917.13;8202259;28;20058;-73
2022/05/28 06:00:46;;;;;;;10.00;1.50;;;;;;;10.38;68.54;98919.50;8209764;28;20062;-72
2022/05/28 06:04:46;;;;;;;10.15;1.58;;;;;;;10.57;66.50;98922.75;8183387;28;20044;-72
2022/05/28 06:08:47;;;;;;;12.65;1.75;;;;;;;10.57;67.06;98921.97;8171258;29;20162;-71
2022/05/28 06:12:49;;;;;;;8.93;1.42;;;;;;;10.55;66.72;98935.78;8176865;28;20048;-72
2022/05/28 06:16:50;;;;;;;8.43;0.98;;;;;;;10.63;66.40;98928.03;8175768;28;20452;-71
2022/05/28 06:20:53;;;;;;;8.23;1.30;;;;;;;10.72;64.95;98918.06;8180031;28;20082;-72
2022/05/28 06:24:55;;;;;;;11.73;1.55;;;;;;;10.75;64.65;98917.41;8221214;28;20047;-72
2022/05/28 06:28:56;;;;;;;6.22;1.20;;;;;;;10.77;62.81;98915.19;8181932;28;20047;-71
2022/05/28 06:32:56;;;;;;;2.35;1.05;;;;;;;10.95;62.55;98916.81;8178997;28;20138;-71
2022/05/28 06:36:58;;;;;;;10.13;1.40;;;;;;;10.93;62.98;98913.66;8180167;28;20106;-72
2022/05/28 06:40:59;;;;;;;11.25;1.40;;;;;;;10.91;62.02;98911.25;8194153;28;20059;-71
2022/05/28 06:45:01;;;;;;;9.45;1.40;;;;;;;11.16;63.00;98901.56;8200837;28;20049;-72
2022/05/28 06:49:03;;;;;;;7.10;1.10;;;;;;;11.37;62.13;98907.94;8198929;28;20055;-72
2022/05/28 06:53:08;;;;;;;11.90;1.80;;;;;;;11.46;63.07;98899.06;8182328;28;20074;-72
2022/05/28 06:57:25;;;;;;;10.95;1.52;;;;;;;11.49;61.88;98910.00;8164437;28;20484;-73
2022/05/28 07:01:26;;;;;;;8.40;0.93;;;;;;;11.67;61.51;98889.16;8144049;29;20112;-72
2022/05/28 07:05:30;;;;;;;12.65;1.67;;;;;;;11.71;60.89;98879.28;8156544;28;20052;-72
2022/05/28 07:09:31;;;;;;;7.72;1.52;;;;;;;12.01;61.42;98899.94;8172918;29;20059;-73
2022/05/28 07:13:34;;;;;;;8.55;1.15;;;;;;;11.96;62.87;98902.81;8168260;29;20052;-72
2022/05/28 07:17:35;;;;;;;6.10;1.17;;;;;;;12.01;60.74;98894.53;8174809;28;20062;-71
2022/05/28 07:21:36;;;;;;;6.53;1.42;;;;;;;11.86;61.50;98886.91;8180091;28;20055;-72
2022/05/28 07:25:38;;;;;;;9.68;1.42;;;;;;;11.64;59.66;98895.19;8195671;28;20047;-73
2022/05/28 07:29:39;;;;;;;7.07;1.27;;;;;;;11.58;60.84;98885.69;8199165;28;20159;-72
2022/05/28 07:33:43;;;;;;;4.22;1.00;;;;;;;11.92;58.05;98891.03;8198963;28;20127;-73
2022/05/28 07:37:43;;;;;;;7.82;1.50;;;;;;;11.83;59.90;98876.75;8199736;28;20134;-73
2022/05/28 07:41:45;;;;;;;9.65;1.27;;;;;;;12.01;58.71;98889.09;8197869;28;20116;-73
2022/05/28 07:45:46;;;;;;;6.93;1.45;;;;;;;12.28;58.98;98872.44;8199291;28;20053;-73
2022/05/28 07:49:48;;;;;;;6.20;1.45;;;;;;;12.38;55.70;98859.66;8198282;28;20047;-73
2022/05/28 07:53:50;;;;;;;5.38;1.27;;;;;;;12.42;55.75;98852.50;8199096;28;20113;-73
2022/05/28 07:57:51;;;;;;;6.65;1.15;;;;;;;12.89;55.00;98853.97;8213084;28;20051;-73
2022/05/28 08:01:52;;;;;;;3.83;1.05;;;;;;;12.87;54.14;98867.03;8198645;28;20118;-73
2022/05/28 08:05:55;;;;;;;10.80;1.88;;;;;;;12.42;55.84;98860.63;8180855;28;20188;-72
2022/05/28 08:09:58;;;;;;;5.47;1.10;;;;;;;12.14;57.41;98861.06;8196968;28;20051;-73
2022/05/28 08:13:59;;;;;;;11.95;1.50;;;;;;;12.52;58.41;98862.94;8207954;28;20676;-71
2022/05/28 08:18:01;;;;;;;8.13;1.67;;;;;;;12.92;56.89;98864.13;8228866;28;20070;-72
2022/05/28 08:26:21;;;;;;;4.13;0.85;;;;;;;12.89;55.03;98859.38;8218993;28;20473;-72
2022/05/28 08:30:22;;;;;;;7.20;1.27;;;;;;;12.97;54.57;98855.78;8237142;28;20051;-71
2022/05/28 08:34:23;;;;;;;6.57;1.00;;;;;;;12.96;54.20;98875.88;8237624;28;20092;-71
2022/05/28 08:38:25;;;;;;;5.80;1.10;;;;;;;13.33;53.65;98857.13;8231273;28;20244;-72
2022/05/28 08:42:27;;;;;;;7.65;1.10;;;;;;;13.63;52.76;98845.06;8204786;28;20067;-72
2022/05/28 08:46:34;;;;;;;9.93;1.40;;;;;;;13.45;54.27;98854.47;8205316;28;20059;-72
2022/05/28 08:50:51;;;;;;;8.18;1.55;;;;;;;13.61;54.14;98858.16;8203962;28;20051;-72
2022/05/28 08:55:02;;;;;;;3.70;1.20;;;;;;;13.28;54.27;98847.28;8174411;28;20054;-73
2022/05/28 08:59:08;;;;;;;6.78;1.40;;;;;;;12.99;54.33;98855.47;8193753;29;20078;-72
2022/05/28 09:03:17;;;;;;;8.52;1.42;;;;;;;13.36;54.59;98861.91;8204114;28;20696;-72
2022/05/28 09:07:18;;;;;;;7.55;1.90;;;;;;;13.56;53.03;98833.94;8184517;28;20062;-73
2022/05/28 09:11:34;;;;;;;3.60;0.77;;;;;;;13.33;52.89;98846.28;8190863;28;20553;-75
2022/05/28 09:15:36;;;;;;;12.23;1.98;;;;;;;13.56;52.20;98833.94;8177753;28;20053;-74
2022/05/28 09:19:41;;;;;;;8.98;1.63;;;;;;;13.59;52.44;98835.97;8203744;28;20491;-74
2022/05/28 09:23:49;;;;;;;2.70;0.90;;;;;;;13.11;51.78;98856.34;8198979;28;20102;-74
2022/05/28 09:28:12;;;;;;;8.10;1.60;;;;;;;12.71;55.08;98863.31;8212754;28;20061;-74
2022/05/28 09:32:34;;;;;;;4.40;0.90;;;;;;;12.12;57.84;98912.00;8201037;28;20061;-75
2022/05/28 09:36:50;;;;;;;4.80;1.40;;;;;;;10.88;70.36;98954.31;8193575;28;20047;-73
2022/05/28 09:41:07;;;;;;;3.92;1.10;;;;;;;10.21;74.58;98938.31;8203557;28;20138;-75
2022/05/28 09:45:25;;;;;;;12.73;0.88;;;;;;;10.01;76.57;98941.53;8199187;28;20062;-78
2022/05/28 09:49:25;;;;;;;4.38;0.70;;;;;;;10.80;76.72;98936.16;8212058;28;20129;-72
2022/05/28 09:58:02;;;;;;;2.35;0.80;;;;;;;11.27;75.05;98924.47;8199904;28;20055;-73
2022/05/28 10:02:29;;;;;;;4.90;0.80;;;;;;;11.16;74.25;98923.19;8211138;28;20055;-72
2022/05/28 10:06:30;;;;;;;5.75;1.00;;;;;;;10.89;75.88;98923.50;8200732;28;20415;-72
2022/05/28 10:10:35;;;;;;;2.75;0.90;;;;;;;11.34;76.53;98935.63;8209546;28;20083;-72
2022/05/28 10:14:35;;;;;;;3.83;1.02;;;;;;;11.99;76.51;98918.41;8201730;28;20078;-72
2022/05/28 10:19:14;;;;;;;2.25;0.52;;;;;;;11.71;70.88;98922.56;8207062;28;20055;-72
2022/05/28 10:23:16;;;;;;;3.65;0.80;;;;;;;11.85;71.70;98923.22;8176393;28;20428;-74
2022/05/28 10:27:41;;;;;;;3.95;0.85;;;;;;;12.19;69.76;98917.72;8148909;29;20050;-72
2022/05/28 10:31:44;;;;;;;5.18;1.70;;;;;;;12.76;68.38;98909.19;8170507;29;20458;-72
2022/05/28 10:35:47;;;;;;;6.43;1.33;;;;;;;12.76;67.33;98903.75;8169474;28;20044;-73
2022/05/28 10:39:48;;;;;;;6.47;1.20;;;;;;;12.66;64.41;98904.13;8170437;28;20527;-72
2022/05/28 10:43:49;;;;;;;4.05;0.90;;;;;;;12.61;63.57;98907.03;8167778;28;20048;-72
2022/05/28 10:48:32;;;;;;;2.63;0.90;;;;;;;12.75;63.14;98907.59;8169064;28;20496;-72
2022/05/28 10:52:51;;;;;;;5.25;1.00;;;;;;;13.19;62.41;98889.16;8058364;29;20723;-72
2022/05/28 10:56:53;;;;;;;;;;;;;;;13.08;62.77;98905.78;8037676;29;20450;-71
2022/05/28 11:01:06;;;;;;;8.63;1.10;;;;;;;13.43;62.75;98892.00;8082347;29;19968;-72
2022/05/28 11:05:52;;;;;;;6.32;1.00;;;;;;;13.82;61.12;98886.03;8104543;29;20049;-73
2022/05/28 11:10:23;;;;;;;2.05;0.68;;;;;;;13.99;55.59;98895.13;8039871;29;20144;-72
2022/05/28 11:14:45;;;;;;;5.72;1.00;;;;;;;14.29;57.35;98904.69;8040054;29;20050;-72
2022/05/28 11:19:14;;;;;;;1.05;0.70;;;;;;;14.43;54.33;98888.91;8024539;29;20054;-73
2022/05/28 11:23:43;;;;;;;7.68;1.00;;;;;;;14.88;53.70;98877.09;8039186;29;20050;-73
2022/05/28 11:27:58;;;;;;;5.50;0.90;;;;;;;14.57;53.39;98883.91;8000611;29;20049;-72
2022/05/28 11:32:07;;;;;;;4.88;1.00;;;;;;;13.68;53.96;98918.13;8022256;29;20540;-75
2022/05/28 11:36:37;;;;;;;4.05;1.00;;;;;;;12.14;67.92;98958.50;8069512;29;20560;-72
2022/05/28 11:40:45;;;;;;;13.75;1.08;;;;;;;10.69;73.36;98941.06;8049986;29;20071;-73
2022/05/28 11:44:52;;;;;;;5.07;0.80;;;;;;;10.63;74.94;98925.34;8089857;29;20063;-73
2022/05/28 11:53:36;;;;;;;5.60;0.75;;;;;;;11.87;76.71;98920.19;8168285;29;20039;-72
2022/05/28 11:58:03;;;;;;;1.98;0.57;;;;;;;12.33;74.73;98911.28;8199265;28;20047;-72
2022/05/28 12:02:10;;;;;;;5.70;1.02;;;;;;;12.23;73.37;98907.03;8175153;28;20098;-72
2022/05/28 12:06:18;;;;;;;2.42;0.98;;;;;;;12.51;73.75;98899.28;8176380;29;20051;-73
2022/05/28 12:10:47;;;;;;;9.43;1.53;;;;;;;13.04;74.81;98910.28;8174671;28;20100;-73
2022/05/28 12:15:16;;;;;;;4.43;1.35;;;;;;;13.33;72.04;98900.53;8174791;29;20039;-73
2022/05/28 12:19:17;;;;;;;4.93;1.17;;;;;;;13.67;69.02;98889.38;8174561;29;20044;-73
2022/05/28 12:23:30;;;;;;;9.77;1.77;;;;;;;14.10;67.03;98885.44;8170888;28;20149;-72
2022/05/28 12:27:57;;;;;;;5.88;1.30;;;;;;;13.53;65.74;98905.16;8171957;29;20052;-72
2022/05/28 12:32:10;;;;;;;4.15;0.98;;;;;;;13.52;65.44;98898.16;8187797;28;20054;-72
2022/05/28 12:36:19;;;;;;;6.93;1.00;;;;;;;13.60;66.86;98894.53;8191092;29;20051;-72
2022/05/28 12:40:40;;;;;;;4.63;1.10;;;;;;;13.81;64.22;98879.00;8192465;28;20069;-72
2022/05/28 12:44:48;;;;;;;10.80;1.05;;;;;;;14.30;60.95;98876.41;8193390;29;20059;-73
2022/05/28 12:49:02;;;;;;;5.72;1.45;;;;;;;14.61;59.75;98873.94;8190784;28;20058;-72
2022/05/28 12:53:21;;;;;;;3.72;1.00;;;;;;;15.28;57.51;98864.28;8193411;28;20551;-72
2022/05/28 12:57:36;;;;;;;3.67;0.80;;;;;;;15.49;54.91;98870.31;8148191;28;20598;-72
2022/05/28 13:01:38;;;;;;;7.13;1.35;;;;;;;14.70;53.29;98855.56;8190941;28;20845;-73
2022/05/28 13:05:43;;;;;;;7.18;1.65;;;;;;;14.43;54.22;98856.28;8191401;28;20412;-72
2022/05/28 13:09:44;;;;;;;9.10;1.30;;;;;;;14.28;55.70;98875.94;8208364;28;20040;-71
2022/05/28 13:13:54;;;;;;;8.95;1.60;;;;;;;14.54;57.63;98873.69;8191045;29;20154;-73
2022/05/28 13:18:09;;;;;;;8.07;1.42;;;;;;;15.26;54.33;98866.56;8185533;28;20043;-72
2022/05/28 13:22:13;;;;;;;6.53;1.30;;;;;;;15.65;53.34;98866.91;8199585;28;20062;-71
2022/05/28 13:26:29;;;;;;;5.43;1.20;;;;;;;16.37;48.84;98880.09;8202496;28;20488;-72
2022/05/28 13:30:37;;;;;;;3.28;1.02;;;;;;;16.04;48.63;98874.16;8183237;28;20058;-71
2022/05/28 13:34:38;;;;;;;5.60;1.20;;;;;;;15.86;48.03;98883.81;8187856;29;20058;-72
2022/05/28 13:38:42;;;;;;;7.00;1.17;;;;;;;16.59;46.91;98894.25;8206522;28;20051;-72
2022/05/28 13:42:43;;;;;;;8.65;1.23;;;;;;;17.27;44.89;98881.78;8177675;29;20048;-73
2022/05/28 13:46:53;;;;;;;7.38;1.30;;;;;;;16.16;46.73;98887.72;8187296;29;20055;-72
2022/05/28 13:50:59;;;;;;;6.10;1.90;;;;;;;15.32;50.27;98892.41;8196725;28;20047;-71
2022/05/28 13:55:06;;;;;;;7.30;1.33;;;;;;;15.13;52.12;98919.41;8189807;28;20134;-72
2022/05/28 13:59:07;;;;;;;5.78;1.20;;;;;;;15.15;51.35;98925.31;8192105;28;20043;-73
2022/05/28 14:03:10;;;;;;;5.72;1.63;;;;;;;14.83;50.18;98945.28;8175739;28;20475;-73
2022/05/28 14:07:27;;;;;;;6.25;1.33;;;;;;;14.08;52.55;98953.63;8197174;28;20040;-72
2022/05/28 14:11:30;;;;;;;5.78;1.08;;;;;;;13.51;55.81;98956.25;8172221;28;20440;-73
2022/05/28 14:15:32;;;;;;;3.90;1.48;;;;;;;13.45;57.28;98946.72;8186438;29;20051;-73
2022/05/28 14:19:39;;;;;;;3.25;1.00;;;;;;;14.90;54.45;98935.44;8203396;28;20052;-73
2022/05/28 14:23:45;;;;;;;5.28;0.90;;;;;;;17.73;46.74;98928.38;8184441;28;20074;-72
2022/05/28 14:27:46;;;;;;;6.05;1.55;;;;;;;16.48;46.28;98938.38;8172978;29;20047;-73
2022/05/28 14:31:48;;;;;;;3.95;1.10;;;;;;;15.54;49.84;98943.63;8173913;29;20039;-72
2022/05/28 14:35:49;;;;;;;5.03;1.20;;;;;;;15.95;49.84;98947.09;8172626;29;20043;-73
2022/05/28 14:39:50;;;;;;;6.47;1.20;;;;;;;15.53;50.66;98957.56;8172054;29;20055;-74
2022/05/28 14:43:53;;;;;;;9.75;2.22;;;;;;;16.65;49.98;98941.94;8172197;29;20083;-72
2022/05/28 14:47:57;;;;;;;8.98;1.83;;;;;;;15.76;52.86;98944.19;8176219;28;20427;-72
2022/05/28 14:51:59;;;;;;;4.50;1.27;;;;;;;15.56;52.95;98941.34;8171386;29;20052;-72
2022/05/28 14:56:19;;;;;;;7.10;1.52;;;;;;;14.69;54.70;98941.00;8176666;28;20098;-74
2022/05/28 15:00:34;;;;;;;7.43;1.52;;;;;;;14.54;55.99;98938.91;8201974;28;20055;-73
2022/05/28 15:04:35;;;;;;;4.53;1.30;;;;;;;14.45;54.03;98940.16;8201865;28;20423;-73
2022/05/28 15:08:39;;;;;;;7.80;1.60;;;;;;;14.89;52.95;98938.50;8177432;28;20047;-73
2022/05/28 15:12:40;;;;;;;5.65;1.38;;;;;;;16.35;50.08;98934.13;8174589;29;20047;-72
2022/05/28 15:16:41;;;;;;;3.85;1.05;;;;;;;18.43;45.38;98925.38;8168860;29;20047;-72
2022/05/28 15:20:43;;;;;;;4.35;1.00;;;;;;;18.82;44.36;98937.75;8151057;29;20051;-72
2022/05/28 15:24:45;;;;;;;3.47;1.10;;;;;;;18.66;42.96;98939.88;8172282;29;20077;-72
2022/05/28 15:28:47;;;;;;;2.53;0.80;;;;;;;17.60;44.59;98943.31;8183138;28;20047;-72
2022/05/28 15:32:48;;;;;;;3.03;1.15;;;;;;;16.75;46.01;98941.38;8178211;28;20055;-74
2022/05/28 15:41:14;;;;;;;8.70;1.70;;;;;;;16.07;48.71;98944.31;8170373;29;20062;-71
2022/05/28 15:45:18;;;;;;;5.70;1.42;;;;;;;15.89;49.03;98937.56;8190009;28;20043;-74
2022/05/28 15:49:20;;;;;;;8.48;1.65;;;;;;;15.58;49.70;98941.78;8150299;29;20062;-73
2022/05/28 15:53:23;;;;;;;5.53;1.58;;;;;;;15.30;51.06;98954.53;8214141;28;20441;-71
2022/05/28 15:57:28;;;;;;;6.00;1.48;;;;;;;15.11;51.21;98946.19;8200350;28;20099;-72
2022/05/28 16:01:31;;;;;;;7.97;1.60;;;;;;;15.00;52.30;98951.28;8198443;28;20058;-73
2022/05/28 16:05:37;;;;;;;8.30;1.80;;;;;;;14.99;52.91;98943.47;8199102;29;20055;-74
2022/05/28 16:09:41;;;;;;;5.03;1.67;;;;;;;15.40;52.88;98942.38;8199605;28;20535;-72
2022/05/28 16:13:43;;;;;;;8.38;1.80;;;;;;;15.71;51.77;98936.28;8198839;28;20706;-73
2022/05/28 16:17:45;;;;;;;6.53;1.50;;;;;;;15.70;51.37;98929.28;8198865;28;20051;-75
2022/05/28 16:21:46;;;;;;;5.10;1.40;;;;;;;15.49;49.70;98927.47;8209837;28;20103;-75
2022/05/28 16:26:08;;;;;;;5.50;1.40;;;;;;;15.39;50.22;98927.97;8199685;28;20053;-75
2022/05/28 16:30:11;;;;;;;5.47;1.38;;;;;;;15.54;50.43;98927.28;8194382;28;20057;-74
2022/05/28 16:34:15;;;;;;;3.85;1.40;;;;;;;15.77;49.10;98929.44;8194878;28;20094;-75
2022/05/28 16:38:16;;;;;;;4.07;1.02;;;;;;;15.89;48.14;98926.69;8132205;28;20050;-74
2022/05/28 16:42:19;;;;;;;7.63;1.40;;;;;;;16.59;47.33;98932.41;8197298;28;20069;-74
2022/05/28 16:46:20;;;;;;;12.15;1.60;;;;;;;16.46;47.28;98924.28;8201856;28;20047;-74
2022/05/28 16:50:21;;;;;;;7.45;1.33;;;;;;;15.73;47.07;98923.13;8201790;29;20051;-74
2022/05/28 16:54:22;;;;;;;4.68;1.08;;;;;;;15.05;48.92;98925.78;8209138;28;20091;-75
2022/05/28 16:58:23;;;;;;;6.57;1.10;;;;;;;14.72;49.34;98917.75;8168911;28;20079;-74
2022/05/28 17:02:24;;;;;;;6.22;1.10;;;;;;;14.61;49.95;98922.84;8221356;28;20062;-74
2022/05/28 17:06:25;;;;;;;11.75;1.20;;;;;;;14.44;50.89;98928.50;8211909;28;20051;-74
2022/05/28 17:10:28;;;;;;;4.55;1.10;;;;;;;14.25;50.88;98925.50;8205087;28;20509;-73
2022/05/28 17:14:29;;;;;;;4.75;1.40;;;;;;;14.06;52.32;98927.97;8205632;28;20046;-75
2022/05/28 17:18:31;;;;;;;9.02;1.92;;;;;;;14.01;53.20;98941.75;8205459;28;20047;-75
2022/05/28 17:22:42;;;;;;;4.78;1.20;;;;;;;13.89;53.87;98940.59;8219217;28;20130;-75
2022/05/28 17:26:43;;;;;;;4.05;0.88;;;;;;;13.73;54.74;98942.31;8204005;28;20051;-74
2022/05/28 17:30:44;;;;;;;4.30;1.23;;;;;;;13.72;54.64;98946.16;8204411;28;20476;-75
2022/05/28 17:34:45;;;;;;;3.08;1.17;;;;;;;13.65;55.90;98940.47;8210846;28;20472;-74
2022/05/28 17:38:47;;;;;;;5.57;1.48;;;;;;;13.60;55.98;98937.97;8213151;28;20133;-74
2022/05/28 17:42:48;;;;;;;4.53;1.02;;;;;;;13.64;55.25;98955.16;8210850;28;20062;-72
2022/05/28 17:46:49;;;;;;;5.72;1.50;;;;;;;13.44;56.66;98956.75;8228790;28;20396;-72
2022/05/28 17:50:51;;;;;;;4.25;1.52;;;;;;;13.35;59.47;98980.44;8203727;28;20467;-72
2022/05/28 17:54:52;;;;;;;3.55;1.27;;;;;;;12.93;63.68;98995.81;8202739;28;20047;-72
2022/05/28 17:58:54;;;;;;;7.82;1.25;;;;;;;12.60;67.44;98992.13;8204351;28;20059;-72
2022/05/28 18:02:59;;;;;;;8.50;1.70;;;;;;;12.34;69.26;98988.69;8204253;28;20610;-73
2022/05/28 18:07:00;;;;;;;2.42;1.13;;;;;;;12.11;69.88;98986.19;8204098;28;20055;-73
2022/05/28 18:11:02;;;;;;;5.90;1.40;;;;;;;11.97;70.83;98990.22;8214461;28;20480;-72
2022/05/28 18:15:04;;;;;;;2.35;1.20;;;;;;;11.88;70.57;98982.13;8204882;28;20066;-72
2022/05/28 18:19:05;;;;;;;3.00;1.10;;;;;;;11.74;70.56;98970.66;8202820;28;20052;-72
2022/05/28 18:23:09;;;;;;;4.38;1.15;;;;;;;11.75;70.14;98977.66;8202060;28;20128;-73
2022/05/28 18:27:13;;;;;;;5.85;1.60;;;;;;;11.72;69.36;98978.28;8202231;28;20400;-72
2022/05/28 18:31:14;;;;;;;4.97;0.93;;;;;;;11.70;68.20;98980.50;8198533;28;20097;-72
2022/05/28 18:35:19;;;;;;;3.42;1.23;;;;;;;11.66;67.32;98971.44;8185422;28;20135;-74
2022/05/28 18:39:48;;;;;;;8.20;1.30;;;;;;;11.68;66.76;98982.72;8211163;28;20078;-73
2022/05/28 18:43:50;;;;;;;;;;;;;;;11.70;66.44;98980.50;8113069;29;20043;-73
2022/05/28 18:47:52;;;;;;;2.60;1.20;;;;;;;11.67;66.03;98989.25;8162904;29;19926;-72
2022/05/28 18:51:57;;;;;;;2.90;1.50;;;;;;;11.67;65.56;98975.72;8164555;29;20044;-73
2022/05/28 18:56:03;;;;;;;7.38;1.40;;;;;;;11.68;65.07;98988.94;8163489;29;20138;-72
2022/05/28 19:00:06;;;;;;;3.25;1.33;;;;;;;11.68;64.43;98988.16;8165365;29;20059;-73
2022/05/28 19:04:08;;;;;;;3.00;1.20;;;;;;;11.53;65.19;98996.69;8148236;29;20066;-73
2022/05/28 19:08:20;;;;;;;5.75;1.25;;;;;;;11.38;65.42;99001.47;8143912;29;20048;-74
2022/05/28 19:12:24;;;;;;;6.82;1.40;;;;;;;11.25;65.81;99007.81;8128683;29;20104;-72
2022/05/28 19:16:30;;;;;;;9.60;1.58;;;;;;;11.10;66.08;99016.38;8062071;29;20043;-73
2022/05/28 19:20:31;;;;;;;4.00;1.40;;;;;;;10.99;66.87;99023.19;8162044;29;20586;-73
2022/05/28 19:24:33;;;;;;;5.45;1.48;;;;;;;10.95;66.98;99022.97;8175563;29;20133;-72
2022/05/28 19:28:35;;;;;;;10.90;1.58;;;;;;;10.76;67.56;99021.66;8182121;28;20047;-72
2022/05/28 19:32:45;;;;;;;5.22;1.42;;;;;;;10.67;68.03;99023.53;8176702;28;21089;-71
2022/05/28 19:36:46;;;;;;;9.63;1.58;;;;;;;10.63;68.07;99027.97;8172367;28;20054;-72